WZZ150 EPKK-LKPR
Flight info
| Callsign | WZZ150 |
|---|---|
| Flight time | 0h 47m |
| Altitude | 30000 |
| Route | TUSIN DCT LABUK DCT TUMKA DCT VLM |
| Aircraft | A20N/M-SDE2E3FGHIRWXY/LB1 |
Departure
| Time | 2026-05-06 16:04 |
|---|---|
| Airport | Kraków John Paul II International Airport (EPKK) |
Arrival
| Time | 2026-05-06 16:51 |
|---|---|
| Airport | Václav Havel Airport Prague (LKPR) |
| Time | Latitude | Longitude | Altitude | Speed | Heading |
|---|---|---|---|---|---|
| 2026-05-06 15:47 | 50.07475 | 19.80079 | 800 ft | 0 kts | 168° |
| 2026-05-06 16:01 | 50.07434 | 19.80093 | 800 ft | 11 kts | 161° |
| 2026-05-06 16:01 | 50.07427 | 19.80224 | 800 ft | 17 kts | 79° |
| 2026-05-06 16:01 | 50.07474 | 19.80379 | 800 ft | 16 kts | 25° |
| 2026-05-06 16:01 | 50.07592 | 19.80419 | 800 ft | 18 kts | 352° |
| 2026-05-06 16:02 | 50.07697 | 19.80386 | 800 ft | 15 kts | 347° |
| 2026-05-06 16:02 | 50.07800 | 19.80351 | 800 ft | 14 kts | 348° |
| 2026-05-06 16:02 | 50.07903 | 19.80317 | 800 ft | 16 kts | 347° |
| 2026-05-06 16:02 | 50.08006 | 19.80247 | 799 ft | 17 kts | 295° |
| 2026-05-06 16:03 | 50.07995 | 19.80087 | 801 ft | 15 kts | 258° |
| 2026-05-06 16:03 | 50.07968 | 19.79877 | 800 ft | 40 kts | 258° |
| 2026-05-06 16:03 | 50.07857 | 19.79094 | 800 ft | 105 kts | 257° |
| 2026-05-06 16:03 | 50.07666 | 19.77720 | 814 ft | 151 kts | 257° |
| 2026-05-06 16:04 | 50.07450 | 19.76172 | 1421 ft | 143 kts | 259° |
| 2026-05-06 16:04 | 50.07239 | 19.74660 | 1981 ft | 146 kts | 257° |
| 2026-05-06 16:04 | 50.07102 | 19.73632 | 2373 ft | 146 kts | 256° |
| 2026-05-06 16:04 | 50.06882 | 19.72026 | 2783 ft | 161 kts | 256° |
| 2026-05-06 16:05 | 50.06489 | 19.69617 | 3247 ft | 186 kts | 252° |
| 2026-05-06 16:05 | 50.06093 | 19.67572 | 3588 ft | 211 kts | 251° |
| 2026-05-06 16:05 | 50.05636 | 19.65257 | 4123 ft | 234 kts | 251° |
| 2026-05-06 16:05 | 50.05148 | 19.62726 | 4788 ft | 253 kts | 252° |
| 2026-05-06 16:06 | 50.04808 | 19.60934 | 5396 ft | 256 kts | 251° |
| 2026-05-06 16:06 | 50.04312 | 19.58291 | 6378 ft | 259 kts | 252° |
| 2026-05-06 16:06 | 50.03804 | 19.55578 | 7345 ft | 263 kts | 251° |
| 2026-05-06 16:06 | 50.03284 | 19.52813 | 8227 ft | 269 kts | 251° |
| 2026-05-06 16:07 | 50.02754 | 19.50010 | 9195 ft | 272 kts | 251° |
| 2026-05-06 16:07 | 50.02212 | 19.47153 | 10079 ft | 278 kts | 251° |
| 2026-05-06 16:07 | 50.01642 | 19.44168 | 10549 ft | 299 kts | 251° |
| 2026-05-06 16:07 | 50.01028 | 19.40960 | 10856 ft | 321 kts | 251° |
| 2026-05-06 16:08 | 50.00380 | 19.37558 | 11575 ft | 329 kts | 251° |
| 2026-05-06 16:08 | 49.99731 | 19.34145 | 12485 ft | 331 kts | 252° |
| 2026-05-06 16:08 | 49.99071 | 19.30682 | 13352 ft | 335 kts | 252° |
| 2026-05-06 16:08 | 49.98405 | 19.27202 | 14129 ft | 338 kts | 252° |
| 2026-05-06 16:09 | 49.97740 | 19.23729 | 14898 ft | 341 kts | 251° |
| 2026-05-06 16:09 | 49.97060 | 19.20193 | 15657 ft | 343 kts | 251° |
| 2026-05-06 16:09 | 49.96370 | 19.16609 | 16381 ft | 347 kts | 251° |
| 2026-05-06 16:09 | 49.95675 | 19.13008 | 17123 ft | 350 kts | 251° |
| 2026-05-06 16:10 | 49.94972 | 19.09372 | 17825 ft | 353 kts | 250° |
| 2026-05-06 16:10 | 49.94261 | 19.05703 | 18493 ft | 357 kts | 250° |
| 2026-05-06 16:10 | 49.93540 | 19.01993 | 19107 ft | 359 kts | 250° |
| 2026-05-06 16:10 | 49.92814 | 18.98262 | 19715 ft | 363 kts | 251° |
| 2026-05-06 16:11 | 49.92077 | 18.94483 | 20293 ft | 367 kts | 251° |
| 2026-05-06 16:11 | 49.91333 | 18.90677 | 20892 ft | 370 kts | 251° |
| 2026-05-06 16:11 | 49.90582 | 18.86835 | 21487 ft | 373 kts | 251° |
| 2026-05-06 16:11 | 49.89833 | 18.83016 | 22064 ft | 377 kts | 251° |
| 2026-05-06 16:12 | 49.89066 | 18.79110 | 22623 ft | 381 kts | 251° |
| 2026-05-06 16:12 | 49.88291 | 18.75174 | 23210 ft | 384 kts | 251° |
| 2026-05-06 16:12 | 49.87507 | 18.71197 | 23700 ft | 387 kts | 251° |
| 2026-05-06 16:12 | 49.86715 | 18.67191 | 24217 ft | 389 kts | 251° |
| 2026-05-06 16:13 | 49.85915 | 18.63152 | 24700 ft | 392 kts | 251° |
| 2026-05-06 16:13 | 49.85108 | 18.59102 | 25181 ft | 394 kts | 250° |
| 2026-05-06 16:13 | 49.84134 | 18.55135 | 25662 ft | 395 kts | 244° |
| 2026-05-06 16:13 | 49.82976 | 18.51261 | 26122 ft | 398 kts | 244° |
| 2026-05-06 16:14 | 49.81816 | 18.47334 | 26555 ft | 400 kts | 244° |
| 2026-05-06 16:14 | 49.80670 | 18.43438 | 26999 ft | 402 kts | 244° |
| 2026-05-06 16:14 | 49.79513 | 18.39506 | 27426 ft | 405 kts | 244° |
| 2026-05-06 16:14 | 49.78340 | 18.35529 | 27857 ft | 407 kts | 244° |
| 2026-05-06 16:15 | 49.77160 | 18.31539 | 28238 ft | 410 kts | 244° |
| 2026-05-06 16:15 | 49.75971 | 18.27528 | 28643 ft | 411 kts | 244° |
| 2026-05-06 16:15 | 49.74770 | 18.23487 | 29056 ft | 413 kts | 244° |
| 2026-05-06 16:15 | 49.73562 | 18.19424 | 29399 ft | 415 kts | 244° |
| 2026-05-06 16:16 | 49.72350 | 18.15360 | 29711 ft | 418 kts | 244° |
| 2026-05-06 16:16 | 49.71129 | 18.11272 | 29805 ft | 419 kts | 244° |
| 2026-05-06 16:16 | 49.68690 | 18.03122 | 29800 ft | 418 kts | 244° |
| 2026-05-06 16:17 | 49.66253 | 17.95008 | 29802 ft | 418 kts | 244° |
| 2026-05-06 16:17 | 49.63797 | 17.86858 | 29802 ft | 419 kts | 244° |
| 2026-05-06 16:18 | 49.61331 | 17.78701 | 29801 ft | 419 kts | 244° |
| 2026-05-06 16:18 | 49.58863 | 17.70565 | 29798 ft | 419 kts | 244° |
| 2026-05-06 16:19 | 49.56392 | 17.62443 | 29800 ft | 410 kts | 244° |
| 2026-05-06 16:19 | 49.55206 | 17.58552 | 29798 ft | 393 kts | 244° |
| 2026-05-06 16:19 | 49.54071 | 17.54835 | 29792 ft | 376 kts | 244° |
| 2026-05-06 16:20 | 49.52983 | 17.51276 | 29791 ft | 359 kts | 244° |
| 2026-05-06 16:20 | 49.51941 | 17.47876 | 29790 ft | 343 kts | 244° |
| 2026-05-06 16:20 | 49.50965 | 17.44682 | 29789 ft | 327 kts | 245° |
| 2026-05-06 16:20 | 49.50193 | 17.41464 | 29791 ft | 317 kts | 252° |
| 2026-05-06 16:21 | 49.49480 | 17.34619 | 29785 ft | 329 kts | 263° |
| 2026-05-06 16:21 | 49.49101 | 17.27637 | 29783 ft | 326 kts | 262° |
| 2026-05-06 16:22 | 49.48703 | 17.20669 | 29783 ft | 327 kts | 262° |
| 2026-05-06 16:22 | 49.48301 | 17.13706 | 29780 ft | 326 kts | 262° |
| 2026-05-06 16:23 | 49.47898 | 17.06796 | 29777 ft | 326 kts | 262° |
| 2026-05-06 16:23 | 49.47490 | 16.99844 | 29771 ft | 326 kts | 262° |
| 2026-05-06 16:24 | 49.47077 | 16.92907 | 29778 ft | 326 kts | 262° |
| 2026-05-06 16:24 | 49.46661 | 16.85965 | 29769 ft | 325 kts | 262° |
| 2026-05-06 16:25 | 49.46243 | 16.79074 | 29768 ft | 325 kts | 262° |
| 2026-05-06 16:25 | 49.45820 | 16.72167 | 29757 ft | 325 kts | 262° |
| 2026-05-06 16:26 | 49.45391 | 16.65236 | 29438 ft | 325 kts | 262° |
| 2026-05-06 16:26 | 49.45177 | 16.61786 | 29149 ft | 322 kts | 261° |
| 2026-05-06 16:26 | 49.44965 | 16.58380 | 28867 ft | 318 kts | 261° |
| 2026-05-06 16:27 | 49.44753 | 16.55009 | 28589 ft | 316 kts | 261° |
| 2026-05-06 16:27 | 49.44541 | 16.51663 | 28318 ft | 315 kts | 261° |
| 2026-05-06 16:27 | 49.44328 | 16.48311 | 28047 ft | 314 kts | 261° |
| 2026-05-06 16:27 | 49.44114 | 16.44970 | 27774 ft | 313 kts | 261° |
| 2026-05-06 16:28 | 49.43902 | 16.41655 | 27511 ft | 311 kts | 261° |
| 2026-05-06 16:28 | 49.43690 | 16.38355 | 27254 ft | 309 kts | 261° |
| 2026-05-06 16:28 | 49.43477 | 16.35067 | 26990 ft | 308 kts | 261° |
| 2026-05-06 16:28 | 49.43269 | 16.31847 | 26732 ft | 306 kts | 261° |
| 2026-05-06 16:29 | 49.43054 | 16.28563 | 26475 ft | 305 kts | 261° |
| 2026-05-06 16:29 | 49.42844 | 16.25354 | 26223 ft | 304 kts | 261° |
| 2026-05-06 16:29 | 49.42631 | 16.22119 | 25976 ft | 303 kts | 261° |
| 2026-05-06 16:29 | 49.42419 | 16.18912 | 25726 ft | 301 kts | 261° |
| 2026-05-06 16:30 | 49.42207 | 16.15724 | 25479 ft | 300 kts | 261° |
| 2026-05-06 16:30 | 49.42066 | 16.13612 | 25316 ft | 300 kts | 261° |
| 2026-05-06 16:30 | 49.41782 | 16.09358 | 24997 ft | 299 kts | 261° |
| 2026-05-06 16:30 | 49.41569 | 16.06194 | 24746 ft | 297 kts | 261° |
| 2026-05-06 16:31 | 49.41357 | 16.03046 | 24508 ft | 296 kts | 261° |
| 2026-05-06 16:31 | 49.41144 | 15.99904 | 24272 ft | 295 kts | 261° |
| 2026-05-06 16:31 | 49.41004 | 15.96760 | 24032 ft | 297 kts | 269° |
| 2026-05-06 16:31 | 49.41334 | 15.93610 | 23798 ft | 302 kts | 283° |
| 2026-05-06 16:32 | 49.42171 | 15.90632 | 23571 ft | 307 kts | 293° |
| 2026-05-06 16:32 | 49.43168 | 15.87780 | 23338 ft | 306 kts | 293° |
| 2026-05-06 16:32 | 49.44161 | 15.84895 | 23070 ft | 305 kts | 292° |
| 2026-05-06 16:32 | 49.45143 | 15.82021 | 22797 ft | 303 kts | 292° |
| 2026-05-06 16:33 | 49.46115 | 15.79167 | 22479 ft | 300 kts | 292° |
| 2026-05-06 16:33 | 49.47076 | 15.76340 | 22092 ft | 298 kts | 292° |
| 2026-05-06 16:33 | 49.48036 | 15.73513 | 21715 ft | 296 kts | 292° |
| 2026-05-06 16:34 | 49.49923 | 15.67946 | 20977 ft | 292 kts | 292° |
| 2026-05-06 16:34 | 49.50859 | 15.65185 | 20610 ft | 290 kts | 292° |
| 2026-05-06 16:34 | 49.51784 | 15.62448 | 20245 ft | 288 kts | 292° |
| 2026-05-06 16:34 | 49.52694 | 15.59755 | 19895 ft | 286 kts | 292° |
| 2026-05-06 16:35 | 49.53606 | 15.57050 | 19550 ft | 284 kts | 292° |
| 2026-05-06 16:35 | 49.54512 | 15.54363 | 19208 ft | 282 kts | 292° |
| 2026-05-06 16:35 | 49.55413 | 15.51685 | 18861 ft | 280 kts | 292° |
| 2026-05-06 16:35 | 49.56307 | 15.49025 | 18505 ft | 279 kts | 292° |
| 2026-05-06 16:36 | 49.57197 | 15.46374 | 18188 ft | 278 kts | 292° |
| 2026-05-06 16:36 | 49.58083 | 15.43735 | 17818 ft | 276 kts | 292° |
| 2026-05-06 16:36 | 49.58964 | 15.41110 | 17411 ft | 275 kts | 292° |
| 2026-05-06 16:36 | 49.59840 | 15.38491 | 17021 ft | 274 kts | 293° |
| 2026-05-06 16:37 | 49.60722 | 15.35848 | 16476 ft | 279 kts | 293° |
| 2026-05-06 16:37 | 49.61611 | 15.33184 | 16074 ft | 279 kts | 293° |
| 2026-05-06 16:37 | 49.62496 | 15.30535 | 15725 ft | 277 kts | 293° |
| 2026-05-06 16:37 | 49.63379 | 15.27891 | 15363 ft | 276 kts | 294° |
| 2026-05-06 16:38 | 49.64244 | 15.25297 | 15029 ft | 275 kts | 294° |
| 2026-05-06 16:38 | 49.65115 | 15.22680 | 14674 ft | 273 kts | 294° |
| 2026-05-06 16:38 | 49.65980 | 15.20077 | 14327 ft | 272 kts | 294° |
| 2026-05-06 16:38 | 49.66841 | 15.17485 | 14015 ft | 270 kts | 294° |
| 2026-05-06 16:39 | 49.67698 | 15.14905 | 13687 ft | 269 kts | 294° |
| 2026-05-06 16:39 | 49.68550 | 15.12334 | 13339 ft | 268 kts | 294° |
| 2026-05-06 16:39 | 49.69395 | 15.09784 | 13072 ft | 263 kts | 294° |
| 2026-05-06 16:39 | 49.70224 | 15.07301 | 12793 ft | 259 kts | 296° |
| 2026-05-06 16:40 | 49.71242 | 15.05002 | 12436 ft | 259 kts | 306° |
| 2026-05-06 16:40 | 49.72358 | 15.02814 | 12091 ft | 258 kts | 305° |
| 2026-05-06 16:40 | 49.73463 | 15.00626 | 11735 ft | 258 kts | 305° |
| 2026-05-06 16:40 | 49.74559 | 14.98443 | 11402 ft | 256 kts | 305° |
| 2026-05-06 16:41 | 49.75651 | 14.96265 | 11079 ft | 255 kts | 304° |
| 2026-05-06 16:41 | 49.76741 | 14.94086 | 10727 ft | 255 kts | 305° |
| 2026-05-06 16:41 | 49.77824 | 14.91922 | 10395 ft | 254 kts | 304° |
| 2026-05-06 16:41 | 49.78883 | 14.89800 | 10078 ft | 253 kts | 305° |
| 2026-05-06 16:42 | 49.79961 | 14.87641 | 9781 ft | 251 kts | 305° |
| 2026-05-06 16:42 | 49.81025 | 14.85496 | 9452 ft | 250 kts | 304° |
| 2026-05-06 16:42 | 49.82070 | 14.83371 | 9127 ft | 249 kts | 304° |
| 2026-05-06 16:42 | 49.83125 | 14.81223 | 8793 ft | 248 kts | 305° |
| 2026-05-06 16:43 | 49.84168 | 14.79101 | 8459 ft | 247 kts | 305° |
| 2026-05-06 16:43 | 49.85210 | 14.76985 | 8135 ft | 247 kts | 305° |
| 2026-05-06 16:43 | 49.86249 | 14.74875 | 7825 ft | 246 kts | 305° |
| 2026-05-06 16:43 | 49.87284 | 14.72768 | 7526 ft | 244 kts | 306° |
| 2026-05-06 16:44 | 49.88314 | 14.70675 | 7239 ft | 244 kts | 306° |
| 2026-05-06 16:44 | 49.89343 | 14.68584 | 6919 ft | 244 kts | 306° |
| 2026-05-06 16:44 | 49.90373 | 14.66492 | 6641 ft | 243 kts | 306° |
| 2026-05-06 16:44 | 49.91381 | 14.64439 | 6348 ft | 242 kts | 306° |
| 2026-05-06 16:45 | 49.92399 | 14.62366 | 6047 ft | 242 kts | 306° |
| 2026-05-06 16:45 | 49.93419 | 14.60287 | 5779 ft | 241 kts | 306° |
| 2026-05-06 16:45 | 49.94434 | 14.58219 | 5486 ft | 240 kts | 306° |
| 2026-05-06 16:45 | 49.95441 | 14.56161 | 5199 ft | 239 kts | 307° |
| 2026-05-06 16:46 | 49.96442 | 14.54099 | 4927 ft | 238 kts | 306° |
| 2026-05-06 16:46 | 49.97433 | 14.52044 | 4674 ft | 236 kts | 307° |
| 2026-05-06 16:46 | 49.98411 | 14.50015 | 4505 ft | 229 kts | 307° |
| 2026-05-06 16:46 | 49.99364 | 14.48102 | 4363 ft | 220 kts | 307° |
| 2026-05-06 16:47 | 50.00271 | 14.46234 | 4157 ft | 209 kts | 307° |
| 2026-05-06 16:47 | 50.01103 | 14.44526 | 3846 ft | 194 kts | 308° |
| 2026-05-06 16:47 | 50.01900 | 14.42885 | 3584 ft | 181 kts | 308° |
| 2026-05-06 16:47 | 50.02636 | 14.41373 | 3343 ft | 169 kts | 308° |
| 2026-05-06 16:48 | 50.03315 | 14.39971 | 3122 ft | 155 kts | 308° |
| 2026-05-06 16:48 | 50.03925 | 14.38717 | 2925 ft | 143 kts | 309° |
| 2026-05-06 16:48 | 50.04511 | 14.37506 | 2752 ft | 140 kts | 310° |
| 2026-05-06 16:48 | 50.05107 | 14.36283 | 2565 ft | 142 kts | 309° |
| 2026-05-06 16:49 | 50.05699 | 14.35063 | 2381 ft | 141 kts | 309° |
| 2026-05-06 16:49 | 50.06286 | 14.33852 | 2191 ft | 140 kts | 309° |
| 2026-05-06 16:49 | 50.06866 | 14.32657 | 2009 ft | 137 kts | 310° |
| 2026-05-06 16:49 | 50.07434 | 14.31486 | 1831 ft | 135 kts | 309° |
| 2026-05-06 16:50 | 50.08002 | 14.30329 | 1628 ft | 134 kts | 308° |
| 2026-05-06 16:50 | 50.08565 | 14.29161 | 1363 ft | 132 kts | 307° |
| 2026-05-06 16:50 | 50.09102 | 14.28052 | 1203 ft | 126 kts | 306° |
| 2026-05-06 16:50 | 50.09438 | 14.27351 | 1176 ft | 111 kts | 307° |
| 2026-05-06 16:51 | 50.09795 | 14.26610 | 1172 ft | 48 kts | 306° |
| 2026-05-06 16:51 | 50.10022 | 14.26145 | 1174 ft | 59 kts | 307° |
| 2026-05-06 16:51 | 50.10216 | 14.25760 | 1173 ft | 19 kts | 316° |
| 2026-05-06 16:51 | 50.10350 | 14.25661 | 1175 ft | 27 kts | 349° |
| 2026-05-06 16:52 | 50.10432 | 14.25661 | 1176 ft | 2 kts | 7° |
| 2026-05-06 16:52 | 50.10440 | 14.25663 | 1176 ft | 0 kts | 9° |
| 2026-05-06 16:52 | 50.10455 | 14.25667 | 1172 ft | 7 kts | 11° |
| 2026-05-06 16:53 | 50.10524 | 14.25700 | 1176 ft | 13 kts | 25° |
| 2026-05-06 16:53 | 50.10602 | 14.25787 | 1175 ft | 15 kts | 35° |
| 2026-05-06 16:53 | 50.10696 | 14.25888 | 1173 ft | 18 kts | 34° |
| 2026-05-06 16:53 | 50.10738 | 14.25987 | 1173 ft | 7 kts | 112° |
| 2026-05-06 16:54 | 50.10729 | 14.26008 | 1173 ft | 0 kts | 126° |